TAF Text Data
IDs:
Format:
Raw Decoded Include METAR

Data at: 0651 UTC 24 Jan 2019

KTCS 240553Z AUTO 00000KT 10SM CLR 03/M11 A3008 RMK AO2 SLP171 T00331106 10094 20022 57003

KTCS 240537Z 2406/2506 28008KT P6SM SKC
  FM241000 01010KT P6SM SKC
  FM241300 01013G20KT P6SM SKC
  FM250000 32005KT P6SM SKC